Time;durP1;ratioP1;P1;durP2;ratioP2;P2;SDS_P1;SDS_P2;PMS_P1;PMS_P2;Temp;Humidity;BMP_temperature;BMP_pressure;BME280_temperature;BME280_humidity;BME280_pressure;Samples;Min_cycle;Max_cycle;Signal;HPM_P1;HPM_P2
2022/08/16 00:00:32;;;;;;;11.15;5.30;;;;;;;21.40;100.00;100555.69;5081425;28;20099;-71
2022/08/16 00:02:58;;;;;;;6.25;4.53;;;;;;;21.40;100.00;100556.50;5086505;28;20020;-71
2022/08/16 00:05:24;;;;;;;7.93;4.72;;;;;;;21.39;98.82;100554.88;5081877;28;20484;-71
2022/08/16 00:07:51;;;;;;;7.28;5.03;;;;;;;21.43;97.60;100555.28;5085914;28;20039;-71
2022/08/16 00:10:18;;;;;;;9.25;5.78;;;;;;;21.47;100.00;100546.53;5075889;28;20388;-71
2022/08/16 00:12:44;;;;;;;7.63;5.47;;;;;;;21.40;100.00;100545.75;5085934;28;20341;-71
2022/08/16 00:15:28;;;;;;;9.55;5.07;;;;;;;21.41;100.00;100541.22;5081235;28;20089;-71
2022/08/16 00:17:54;;;;;;;7.60;5.45;;;;;;;21.39;100.00;100543.31;5077906;28;20028;-71
2022/08/16 00:20:20;;;;;;;6.88;4.78;;;;;;;21.41;99.64;100535.84;5078396;28;20031;-71
2022/08/16 00:22:46;;;;;;;6.72;5.43;;;;;;;21.42;100.00;100537.50;5076925;28;20035;-71
2022/08/16 00:25:15;;;;;;;6.88;5.10;;;;;;;21.33;100.00;100523.56;5070867;28;20572;-71
2022/08/16 00:27:40;;;;;;;8.48;4.95;;;;;;;21.40;100.00;100544.94;5076154;28;20532;-71
2022/08/16 00:30:10;;;;;;;9.38;5.90;;;;;;;21.39;100.00;100543.31;5075145;28;20029;-71
2022/08/16 00:32:41;;;;;;;9.15;5.47;;;;;;;21.35;100.00;100541.06;5074264;28;20204;-71
2022/08/16 00:35:09;;;;;;;8.35;5.43;;;;;;;21.32;100.00;100546.09;5079214;28;20123;-71
2022/08/16 00:37:34;;;;;;;7.75;5.32;;;;;;;21.31;100.00;100541.75;5082755;28;20119;-71
2022/08/16 00:40:00;;;;;;;10.43;6.97;;;;;;;21.23;100.00;100544.75;5082684;28;20108;-72
2022/08/16 00:42:29;;;;;;;9.43;6.63;;;;;;;21.04;100.00;100549.38;5082871;28;20024;-71
2022/08/16 00:44:58;;;;;;;10.30;7.43;;;;;;;20.90;100.00;100541.47;5076447;28;20012;-71
2022/08/16 00:47:25;;;;;;;10.52;7.13;;;;;;;20.75;100.00;100549.06;5081017;28;20487;-71
2022/08/16 00:49:50;;;;;;;17.70;10.13;;;;;;;20.44;100.00;100529.41;5086442;28;20028;-71
2022/08/16 00:52:15;;;;;;;12.18;8.27;;;;;;;20.47;100.00;100546.88;5083021;28;20034;-71
2022/08/16 00:54:41;;;;;;;10.30;7.70;;;;;;;20.46;100.00;100540.72;5084600;28;20115;-71
2022/08/16 00:57:07;;;;;;;12.98;7.63;;;;;;;20.48;100.00;100549.34;5085689;28;20039;-71
2022/08/16 00:59:35;;;;;;;9.02;7.47;;;;;;;20.46;100.00;100556.78;5082788;28;20064;-71
2022/08/16 01:02:02;;;;;;;13.00;8.27;;;;;;;20.46;100.00;100559.47;5096341;28;20020;-71
2022/08/16 01:04:28;;;;;;;13.95;8.48;;;;;;;20.45;100.00;100560.53;5074167;28;20082;-71
2022/08/16 01:06:54;;;;;;;9.75;7.97;;;;;;;20.40;100.00;100552.31;5082558;28;20028;-71
2022/08/16 01:09:19;;;;;;;12.32;8.48;;;;;;;20.40;100.00;100560.34;5083258;28;20119;-71
2022/08/16 01:11:46;;;;;;;12.30;8.35;;;;;;;20.39;100.00;100553.38;5087464;28;20124;-71
2022/08/16 01:14:21;;;;;;;10.85;7.68;;;;;;;20.40;100.00;100551.50;5080877;28;20054;-71
2022/08/16 01:16:48;;;;;;;8.13;7.05;;;;;;;20.43;100.00;100551.91;5088285;28;20476;-71
2022/08/16 01:19:28;;;;;;;12.68;8.18;;;;;;;20.38;100.00;100543.69;5081920;28;20024;-71
2022/08/16 01:21:57;;;;;;;13.40;7.75;;;;;;;20.41;100.00;100545.94;5077180;28;20020;-71
2022/08/16 01:24:38;;;;;;;13.85;8.55;;;;;;;20.35;100.00;100531.53;5078506;28;20078;-71
2022/08/16 01:27:09;;;;;;;12.18;9.45;;;;;;;20.32;100.00;100541.91;5083176;28;20039;-70
2022/08/16 01:29:43;;;;;;;12.20;8.82;;;;;;;20.23;100.00;100540.53;5084418;28;20472;-71
2022/08/16 01:32:08;;;;;;;10.45;7.78;;;;;;;20.20;100.00;100538.31;5077435;28;20764;-71
2022/08/16 01:34:34;;;;;;;13.90;7.95;;;;;;;20.22;100.00;100539.72;5082885;28;20052;-71
2022/08/16 01:37:06;;;;;;;11.13;8.82;;;;;;;20.21;100.00;100529.22;5082978;28;20111;-71
2022/08/16 01:39:33;;;;;;;11.95;8.77;;;;;;;20.19;100.00;100534.00;5075353;28;20060;-71
2022/08/16 01:42:00;;;;;;;11.60;7.28;;;;;;;20.24;100.00;100539.50;5090524;28;20072;-71
2022/08/16 01:44:26;;;;;;;12.38;7.90;;;;;;;20.22;100.00;100542.41;5077596;28;20042;-71
2022/08/16 01:46:56;;;;;;;10.35;7.05;;;;;;;20.25;100.00;100543.81;5087407;28;20475;-71
2022/08/16 01:49:21;;;;;;;13.85;8.20;;;;;;;20.27;100.00;100545.25;5081862;28;20033;-71
2022/08/16 01:51:55;;;;;;;12.82;8.43;;;;;;;20.13;100.00;100536.50;5083946;28;20035;-71
2022/08/16 01:54:20;;;;;;;13.73;8.25;;;;;;;20.19;100.00;100542.03;5084320;28;20028;-71
2022/08/16 01:56:46;;;;;;;12.50;9.40;;;;;;;20.12;100.00;100539.41;5084498;28;20090;-71
2022/08/16 01:59:14;;;;;;;13.65;8.90;;;;;;;20.08;100.00;100532.88;5078550;28;20040;-71
2022/08/16 02:01:39;;;;;;;9.93;7.80;;;;;;;20.07;100.00;100537.38;5075681;28;20030;-71
2022/08/16 02:04:06;;;;;;;12.15;8.32;;;;;;;20.05;100.00;100539.47;5081579;28;20032;-71
2022/08/16 02:06:33;;;;;;;11.82;8.75;;;;;;;19.94;100.00;100524.94;5076227;28;20020;-71
2022/08/16 02:08:59;;;;;;;15.38;9.05;;;;;;;19.99;100.00;100534.16;5078205;28;20054;-71
2022/08/16 02:11:26;;;;;;;13.30;8.65;;;;;;;19.92;100.00;100526.19;5075560;28;20032;-71
2022/08/16 02:13:51;;;;;;;13.20;9.68;;;;;;;19.93;100.00;100536.69;5079192;28;20043;-71
2022/08/16 02:16:17;;;;;;;13.27;9.02;;;;;;;19.85;100.00;100518.22;5080638;28;20028;-71
2022/08/16 02:18:43;;;;;;;12.90;8.43;;;;;;;19.89;100.00;100537.34;5074726;28;20033;-71
2022/08/16 02:21:09;;;;;;;13.43;9.30;;;;;;;19.82;100.00;100528.56;5079227;28;20051;-71
2022/08/16 02:23:36;;;;;;;14.27;9.35;;;;;;;19.76;100.00;100534.78;5075862;28;20056;-71
2022/08/16 02:26:03;;;;;;;15.77;10.77;;;;;;;19.64;100.00;100514.06;5076221;28;21018;-71
2022/08/16 02:28:29;;;;;;;14.30;9.40;;;;;;;19.69;100.00;100537.50;5084939;28;20031;-71
2022/08/16 02:30:57;;;;;;;14.45;9.18;;;;;;;19.61;100.00;100532.41;5075933;28;20051;-71
2022/08/16 02:33:24;;;;;;;13.35;8.20;;;;;;;19.52;100.00;100531.84;5081180;28;20516;-71
2022/08/16 02:35:49;;;;;;;12.02;8.82;;;;;;;19.41;100.00;100527.19;5075975;28;20026;-71
2022/08/16 02:38:14;;;;;;;13.50;9.40;;;;;;;19.33;100.00;100530.94;5060817;28;20034;-71
2022/08/16 02:40:40;;;;;;;16.90;11.10;;;;;;;19.27;100.00;100532.63;5081650;28;20162;-71
2022/08/16 02:43:06;;;;;;;17.27;9.65;;;;;;;19.20;100.00;100531.81;5077274;28;20017;-71
2022/08/16 02:45:31;;;;;;;18.20;10.00;;;;;;;19.30;100.00;100547.41;5077460;28;20032;-71
2022/08/16 02:47:57;;;;;;;14.35;9.48;;;;;;;19.31;100.00;100547.22;5079205;28;20392;-71
2022/08/16 02:50:23;;;;;;;13.43;9.70;;;;;;;19.32;100.00;100543.50;5081113;28;20032;-71
2022/08/16 02:52:49;;;;;;;12.73;9.60;;;;;;;19.35;100.00;100541.41;5075807;28;20024;-71
2022/08/16 02:55:14;;;;;;;16.58;10.90;;;;;;;19.36;100.00;100546.56;5076079;28;20036;-71
2022/08/16 02:57:39;;;;;;;20.13;11.07;;;;;;;19.40;100.00;100544.25;5074298;28;20119;-71
2022/08/16 03:00:10;;;;;;;15.55;11.32;;;;;;;19.38;100.00;100543.66;5079665;28;20449;-71
2022/08/16 03:02:36;;;;;;;16.60;11.77;;;;;;;19.35;100.00;100542.22;5075644;28;20059;-71
2022/08/16 03:05:03;;;;;;;17.45;10.98;;;;;;;19.37;100.00;100542.03;5074916;28;20029;-71
2022/08/16 03:07:29;;;;;;;16.95;10.82;;;;;;;19.36;100.00;100545.72;5074287;28;20089;-71
2022/08/16 03:09:56;;;;;;;16.20;11.02;;;;;;;19.32;100.00;100540.81;5079993;28;20032;-71
2022/08/16 03:12:22;;;;;;;17.20;11.25;;;;;;;19.25;100.00;100529.34;5078265;28;20035;-71
2022/08/16 03:14:47;;;;;;;18.15;10.95;;;;;;;19.31;100.00;100530.31;5079552;28;20514;-71
2022/08/16 03:17:13;;;;;;;13.98;10.20;;;;;;;19.33;100.00;100529.06;5076674;28;20040;-71
2022/08/16 03:19:39;;;;;;;14.35;10.68;;;;;;;19.42;100.00;100526.13;5063289;28;20036;-71
2022/08/16 03:22:04;;;;;;;12.93;9.35;;;;;;;19.47;100.00;100537.84;5076732;28;20056;-71
2022/08/16 03:24:29;;;;;;;16.80;11.05;;;;;;;19.42;100.00;100539.50;5076255;28;20024;-71
2022/08/16 03:26:59;;;;;;;13.25;9.88;;;;;;;19.37;100.00;100542.03;5077305;28;20133;-71
2022/08/16 03:29:30;;;;;;;15.68;11.52;;;;;;;19.32;100.00;100538.13;5079966;28;20444;-71
2022/08/16 03:31:59;;;;;;;;;;;;;;;19.31;100.00;100539.19;5079121;28;20040;-71
2022/08/16 03:34:24;;;;;;;13.95;10.15;;;;;;;19.33;100.00;100536.28;5075301;28;19985;-71
2022/08/16 03:36:50;;;;;;;16.85;11.95;;;;;;;19.33;100.00;100534.41;5076810;28;20472;-71
2022/08/16 03:39:15;;;;;;;13.35;10.32;;;;;;;19.33;100.00;100531.75;5074029;28;20136;-71
2022/08/16 03:41:40;;;;;;;15.65;9.55;;;;;;;19.22;100.00;100524.41;5078382;28;20020;-71
2022/08/16 03:44:06;;;;;;;16.92;11.73;;;;;;;19.29;100.00;100535.06;5077241;28;20548;-71
2022/08/16 03:46:33;;;;;;;19.23;10.65;;;;;;;19.22;100.00;100536.97;5078357;28;20507;-71
2022/08/16 03:48:59;;;;;;;17.05;11.30;;;;;;;19.05;100.00;100517.91;5074543;28;20483;-71
2022/08/16 03:51:24;;;;;;;15.05;10.00;;;;;;;19.07;100.00;100542.59;5075215;28;20038;-71
2022/08/16 03:53:50;;;;;;;17.17;11.43;;;;;;;19.01;100.00;100543.44;5077898;28;20028;-71
2022/08/16 03:56:15;;;;;;;15.00;10.10;;;;;;;19.01;100.00;100543.44;5076224;28;20395;-71
2022/08/16 03:58:41;;;;;;;16.88;10.35;;;;;;;19.00;100.00;100536.47;5076097;28;20024;-71
2022/08/16 04:01:07;;;;;;;18.35;12.48;;;;;;;18.98;100.00;100541.22;5076270;28;20540;-71
2022/08/16 04:03:33;;;;;;;15.02;11.23;;;;;;;18.88;100.00;100525.63;5074945;28;20025;-71
2022/08/16 04:05:59;;;;;;;16.85;11.60;;;;;;;18.92;100.00;100526.81;5077698;28;20491;-71
2022/08/16 04:08:25;;;;;;;19.02;12.23;;;;;;;18.90;100.00;100527.06;5076951;28;20028;-71
2022/08/16 04:10:53;;;;;;;17.73;10.77;;;;;;;18.87;100.00;100543.50;5077543;28;20062;-71
2022/08/16 04:13:19;;;;;;;21.02;12.73;;;;;;;18.84;100.00;100543.13;5077479;28;20111;-71
2022/08/16 04:15:44;;;;;;;21.33;11.50;;;;;;;18.79;100.00;100534.91;5076462;28;20140;-71
2022/08/16 04:18:10;;;;;;;16.77;11.95;;;;;;;18.78;100.00;100538.63;5075019;28;20539;-71
2022/08/16 04:20:35;;;;;;;18.20;10.93;;;;;;;18.80;100.00;100532.03;5075878;28;20051;-72
2022/08/16 04:23:01;;;;;;;19.33;10.82;;;;;;;18.80;100.00;100531.22;5073968;28;20050;-71
2022/08/16 04:25:27;;;;;;;21.27;11.18;;;;;;;18.82;100.00;100531.81;5074885;28;20028;-71
2022/08/16 04:27:54;;;;;;;18.70;11.95;;;;;;;18.79;100.00;100530.41;5077582;28;20629;-71
2022/08/16 04:30:21;;;;;;;18.83;10.68;;;;;;;18.82;100.00;100532.63;5080534;28;20024;-71
2022/08/16 04:32:47;;;;;;;16.92;11.20;;;;;;;18.84;100.00;100535.09;5074947;28;20085;-71
2022/08/16 04:35:15;;;;;;;17.23;10.75;;;;;;;18.88;100.00;100544.34;5075939;28;20028;-70
2022/08/16 04:37:42;;;;;;;16.08;10.63;;;;;;;18.82;100.00;100529.16;5067862;28;20031;-71
2022/08/16 04:40:09;;;;;;;16.38;9.75;;;;;;;18.90;100.00;100537.75;5071596;28;20027;-71
2022/08/16 04:42:38;;;;;;;16.77;11.85;;;;;;;18.80;100.00;100525.88;5078699;28;20032;-72
2022/08/16 04:45:05;;;;;;;21.10;11.02;;;;;;;18.82;100.00;100540.66;5074125;28;20036;-72
2022/08/16 04:47:31;;;;;;;16.00;10.60;;;;;;;18.79;100.00;100545.59;5075414;28;20106;-70
2022/08/16 04:49:57;;;;;;;17.65;11.13;;;;;;;18.77;100.00;100544.94;5073784;28;20457;-72
2022/08/16 04:52:22;;;;;;;15.20;11.35;;;;;;;18.69;100.00;100556.72;5078791;28;20480;-71
2022/08/16 04:54:48;;;;;;;14.52;10.15;;;;;;;18.66;100.00;100551.78;5075369;28;20118;-71
2022/08/16 04:57:14;;;;;;;20.40;11.93;;;;;;;18.64;100.00;100565.38;5075544;28;20028;-71
2022/08/16 04:59:39;;;;;;;18.20;11.77;;;;;;;18.66;100.00;100562.47;5073198;28;20602;-71
2022/08/16 05:02:04;;;;;;;14.70;10.05;;;;;;;18.68;100.00;100560.41;5067753;28;20016;-72
2022/08/16 05:04:30;;;;;;;12.77;9.80;;;;;;;18.65;100.00;100566.19;5068014;28;20071;-70
2022/08/16 05:06:56;;;;;;;17.85;10.85;;;;;;;18.61;100.00;100564.97;5066252;28;20113;-72
2022/08/16 05:09:22;;;;;;;15.13;10.35;;;;;;;18.61;100.00;100563.09;5061198;28;20309;-70
2022/08/16 05:11:47;;;;;;;20.15;10.30;;;;;;;18.64;100.00;100575.22;5062186;28;20554;-70
2022/08/16 05:14:13;;;;;;;18.40;10.98;;;;;;;18.59;100.00;100556.31;5063310;28;20033;-71
2022/08/16 05:16:38;;;;;;;14.68;10.77;;;;;;;18.66;100.00;100567.81;5071581;28;20028;-71
2022/08/16 05:19:05;;;;;;;16.58;9.50;;;;;;;18.69;100.00;100567.41;5072853;28;20024;-71
2022/08/16 05:21:31;;;;;;;13.63;9.45;;;;;;;18.75;100.00;100565.72;5068619;28;20526;-70
2022/08/16 05:23:57;;;;;;;17.98;10.27;;;;;;;18.66;100.00;100555.28;5063942;28;20397;-70
2022/08/16 05:26:24;;;;;;;18.55;10.27;;;;;;;18.78;100.00;100563.50;5067032;28;20040;-71
2022/08/16 05:28:50;;;;;;;16.67;10.95;;;;;;;18.78;100.00;100566.16;5069574;28;20055;-71
2022/08/16 05:31:15;;;;;;;16.33;9.80;;;;;;;18.84;100.00;100572.53;5070151;28;20036;-71
2022/08/16 05:33:42;;;;;;;15.13;10.63;;;;;;;18.81;100.00;100563.06;5068762;28;20114;-71
2022/08/16 05:36:08;;;;;;;17.48;9.27;;;;;;;18.91;100.00;100560.75;5070459;28;20025;-71
2022/08/16 05:38:35;;;;;;;15.85;11.20;;;;;;;18.93;100.00;100563.25;5071486;28;20036;-71
2022/08/16 05:41:01;;;;;;;16.30;10.50;;;;;;;19.01;100.00;100564.84;5073211;28;20107;-70
2022/08/16 05:43:27;;;;;;;16.70;10.63;;;;;;;18.99;100.00;100561.56;5070978;28;20564;-70
2022/08/16 05:45:54;;;;;;;13.80;9.50;;;;;;;19.03;100.00;100562.78;5070394;28;20100;-70
2022/08/16 05:48:20;;;;;;;13.82;9.55;;;;;;;18.99;100.00;100557.03;5073203;28;20027;-72
2022/08/16 05:50:46;;;;;;;13.68;8.77;;;;;;;19.17;100.00;100575.06;5077178;28;20110;-70
2022/08/16 05:53:11;;;;;;;12.68;9.07;;;;;;;19.21;100.00;100568.25;5081440;28;20052;-70
2022/08/16 05:55:37;;;;;;;17.17;9.65;;;;;;;19.16;100.00;100560.03;5068404;28;20521;-70
2022/08/16 05:58:03;;;;;;;12.90;9.52;;;;;;;19.24;100.00;100570.50;5066832;28;20040;-70
2022/08/16 06:00:28;;;;;;;15.25;9.75;;;;;;;19.27;100.00;100580.78;5075152;28;20027;-71
2022/08/16 06:02:54;;;;;;;13.57;9.13;;;;;;;19.30;100.00;100575.00;5075503;28;20808;-70
2022/08/16 06:05:19;;;;;;;16.77;10.57;;;;;;;19.35;100.00;100579.69;5075168;28;20830;-70
2022/08/16 06:07:45;;;;;;;14.18;8.95;;;;;;;19.51;100.00;100591.75;5076752;28;20039;-71
2022/08/16 06:10:11;;;;;;;13.27;8.93;;;;;;;19.55;100.00;100586.78;5073830;28;20027;-72
2022/08/16 06:12:37;;;;;;;13.07;9.65;;;;;;;19.70;100.00;100590.00;5078160;28;20043;-70
2022/08/16 06:15:11;;;;;;;14.02;8.98;;;;;;;19.88;100.00;100592.78;5078494;28;20086;-71
2022/08/16 06:17:37;;;;;;;14.98;10.30;;;;;;;20.00;100.00;100595.56;5075064;28;20032;-71
2022/08/16 06:20:05;;;;;;;12.75;9.02;;;;;;;20.05;100.00;100579.66;5075115;28;20480;-70
2022/08/16 06:22:30;;;;;;;11.90;8.57;;;;;;;20.22;100.00;100587.16;5078649;28;20028;-71
2022/08/16 06:24:56;;;;;;;19.10;10.00;;;;;;;20.38;100.00;100593.78;5077201;28;20445;-71
2022/08/16 06:27:21;;;;;;;14.52;9.65;;;;;;;20.47;100.00;100603.19;5074394;28;20056;-71
2022/08/16 06:29:46;;;;;;;12.77;8.48;;;;;;;20.41;100.00;100599.53;5063430;28;20389;-71
2022/08/16 06:32:12;;;;;;;12.93;8.88;;;;;;;20.53;100.00;100591.56;5052488;28;20146;-71
2022/08/16 06:34:37;;;;;;;12.05;8.25;;;;;;;20.58;100.00;100585.56;5066903;28;20080;-73
2022/08/16 06:37:03;;;;;;;13.77;8.30;;;;;;;20.66;100.00;100571.88;5069179;28;20024;-71
2022/08/16 06:39:29;;;;;;;11.23;8.23;;;;;;;20.98;100.00;100599.38;5066386;28;20469;-72
2022/08/16 06:41:55;;;;;;;12.15;8.93;;;;;;;20.91;99.75;100595.94;5068959;28;20501;-72
2022/08/16 06:44:20;;;;;;;11.50;8.35;;;;;;;21.07;99.39;100606.06;5075069;28;20492;-73
2022/08/16 06:46:46;;;;;;;15.93;9.82;;;;;;;21.10;97.55;100594.06;5071083;28;20051;-71
2022/08/16 06:49:11;;;;;;;14.27;7.75;;;;;;;21.19;97.95;100603.44;5067585;28;20564;-71
2022/08/16 06:51:38;;;;;;;17.52;8.90;;;;;;;21.54;97.23;100610.88;5063072;28;20136;-71
2022/08/16 06:54:05;;;;;;;11.23;9.05;;;;;;;21.54;95.32;100605.50;5068288;28;20040;-72
2022/08/16 06:56:30;;;;;;;12.38;7.32;;;;;;;21.69;95.01;100611.25;5069343;28;20028;-72
2022/08/16 06:58:56;;;;;;;12.57;7.88;;;;;;;22.01;93.98;100610.16;5063435;28;20606;-72
2022/08/16 07:01:22;;;;;;;13.70;8.68;;;;;;;22.43;91.39;100618.16;5069278;28;20392;-72
2022/08/16 07:03:48;;;;;;;12.32;7.68;;;;;;;22.58;90.63;100621.19;5066918;28;20025;-72
2022/08/16 07:06:14;;;;;;;10.20;7.75;;;;;;;23.10;88.91;100615.03;5073740;28;20029;-72
2022/08/16 07:08:41;;;;;;;8.10;6.85;;;;;;;23.35;87.16;100620.13;5078275;28;20230;-72
2022/08/16 07:11:07;;;;;;;8.57;7.32;;;;;;;23.64;85.21;100617.41;5064166;28;20031;-72
2022/08/16 07:13:34;;;;;;;8.18;5.80;;;;;;;24.13;83.91;100610.47;5080572;28;20111;-72
2022/08/16 07:16:00;;;;;;;8.65;6.57;;;;;;;24.50;81.69;100609.94;5072391;28;20043;-72
2022/08/16 07:18:26;;;;;;;8.32;6.25;;;;;;;24.78;78.90;100622.47;5074392;28;20035;-72
2022/08/16 07:20:52;;;;;;;7.65;6.55;;;;;;;24.68;79.99;100611.53;5074179;28;20027;-72
2022/08/16 07:23:18;;;;;;;8.02;6.30;;;;;;;25.08;77.66;100610.41;5073239;28;20028;-72
2022/08/16 07:25:45;;;;;;;8.27;4.63;;;;;;;25.23;77.67;100623.31;5070758;28;20064;-71
2022/08/16 07:28:16;;;;;;;6.97;5.95;;;;;;;25.67;74.40;100620.50;5074244;28;20261;-71
2022/08/16 07:30:44;;;;;;;10.23;6.25;;;;;;;25.78;73.08;100618.72;5078954;28;20051;-72
2022/08/16 07:33:10;;;;;;;6.82;5.30;;;;;;;25.94;73.41;100606.19;5074786;28;20556;-72
2022/08/16 07:35:36;;;;;;;9.60;5.03;;;;;;;26.89;71.04;100614.34;5055188;28;20090;-72
2022/08/16 07:38:03;;;;;;;5.97;5.07;;;;;;;26.99;69.83;100622.53;5072149;28;20044;-72
2022/08/16 07:40:28;;;;;;;7.22;4.82;;;;;;;27.48;66.40;100613.19;5081778;28;20024;-72
2022/08/16 07:42:54;;;;;;;7.97;4.05;;;;;;;27.82;68.10;100618.13;5070211;28;20034;-72
2022/08/16 07:45:21;;;;;;;6.78;4.82;;;;;;;27.74;66.16;100608.63;5075777;28;20052;-72
2022/08/16 07:47:47;;;;;;;7.80;5.10;;;;;;;28.43;64.73;100611.84;5068827;28;20027;-72
2022/08/16 07:50:13;;;;;;;8.00;5.35;;;;;;;28.41;63.38;100619.47;5071830;28;20020;-73
2022/08/16 07:52:40;;;;;;;10.95;5.40;;;;;;;27.58;63.23;100617.84;5077694;28;20143;-72
2022/08/16 07:55:07;;;;;;;8.35;4.97;;;;;;;27.61;64.59;100622.72;5076669;28;20381;-73
2022/08/16 07:57:32;;;;;;;6.28;4.57;;;;;;;27.85;63.50;100629.28;5054590;28;20043;-72
2022/08/16 07:59:59;;;;;;;6.97;4.93;;;;;;;27.76;63.36;100630.06;5073308;28;20425;-72
2022/08/16 08:02:25;;;;;;;6.95;5.07;;;;;;;28.00;63.40;100631.16;5075357;28;20024;-72
2022/08/16 08:04:50;;;;;;;5.53;4.22;;;;;;;28.10;63.49;100630.38;5075855;28;20043;-72
2022/08/16 08:07:16;;;;;;;6.97;4.82;;;;;;;28.39;63.37;100632.50;5077091;28;20404;-72
2022/08/16 08:09:42;;;;;;;5.63;4.15;;;;;;;28.71;62.65;100641.13;5076522;28;20100;-72
2022/08/16 08:12:07;;;;;;;9.80;4.25;;;;;;;29.41;58.36;100643.03;5076565;28;20044;-72
2022/08/16 08:14:33;;;;;;;5.00;3.80;;;;;;;29.98;58.33;100651.63;5074875;28;20063;-72
2022/08/16 08:17:00;;;;;;;4.38;3.78;;;;;;;30.73;56.58;100651.19;5069551;28;20025;-70
2022/08/16 08:19:25;;;;;;;4.13;3.58;;;;;;;30.45;55.51;100650.13;5073650;28;20036;-72
2022/08/16 08:21:53;;;;;;;5.72;3.90;;;;;;;29.38;56.85;100646.31;5074066;28;20032;-70
2022/08/16 08:24:21;;;;;;;6.47;3.20;;;;;;;29.21;59.99;100640.44;5067334;28;20111;-72
2022/08/16 08:26:46;;;;;;;5.10;3.72;;;;;;;29.60;58.76;100643.19;5076940;28;20115;-69
2022/08/16 08:29:11;;;;;;;5.13;4.05;;;;;;;29.81;56.56;100638.44;5068937;28;20107;-70
2022/08/16 08:31:40;;;;;;;4.75;3.60;;;;;;;29.25;57.63;100645.03;5076281;28;20107;-71
2022/08/16 08:34:06;;;;;;;6.88;3.63;;;;;;;29.74;58.20;100637.94;5078652;28;20411;-71
2022/08/16 08:36:34;;;;;;;4.63;3.83;;;;;;;29.55;56.49;100637.78;5075440;28;20039;-72
2022/08/16 08:39:00;;;;;;;6.82;3.72;;;;;;;28.75;58.55;100635.16;5079910;28;20053;-72
2022/08/16 08:41:27;;;;;;;5.55;3.92;;;;;;;28.59;58.03;100640.63;5072321;28;20103;-72
2022/08/16 08:43:53;;;;;;;7.20;3.90;;;;;;;28.43;59.27;100639.00;5078555;28;20496;-72
2022/08/16 08:46:20;;;;;;;6.63;3.90;;;;;;;29.53;55.88;100646.22;5076401;28;20028;-72
2022/08/16 08:48:46;;;;;;;4.38;3.47;;;;;;;29.99;56.70;100652.44;5071409;28;20062;-72
2022/08/16 08:51:12;;;;;;;4.22;3.15;;;;;;;30.51;55.48;100653.63;5071963;28;20021;-72
2022/08/16 08:53:38;;;;;;;7.05;3.30;;;;;;;29.96;56.01;100653.00;5075998;28;20395;-72
2022/08/16 08:56:05;;;;;;;4.20;2.70;;;;;;;30.46;56.50;100656.38;5075596;28;20485;-72
2022/08/16 08:58:32;;;;;;;4.93;2.83;;;;;;;32.13;52.41;100670.03;5070009;28;20028;-72
2022/08/16 09:00:58;;;;;;;3.58;3.28;;;;;;;32.52;52.12;100649.66;5073676;28;20081;-72
2022/08/16 09:03:24;;;;;;;4.72;3.00;;;;;;;32.78;50.29;100652.72;5070534;28;20028;-72
2022/08/16 09:05:50;;;;;;;4.38;2.80;;;;;;;33.68;48.78;100663.94;5078561;28;20107;-72
2022/08/16 09:08:16;;;;;;;5.28;3.55;;;;;;;31.87;50.11;100662.22;5077623;28;20032;-72
2022/08/16 09:10:42;;;;;;;3.80;2.63;;;;;;;32.14;52.46;100650.63;5078010;28;20465;-72
2022/08/16 09:13:07;;;;;;;3.55;2.45;;;;;;;33.28;49.82;100665.66;5080639;28;20500;-73
2022/08/16 09:15:32;;;;;;;4.07;3.30;;;;;;;32.01;50.32;100667.78;5075719;28;20488;-71
2022/08/16 09:17:58;;;;;;;560.83;528.88;;;;;;;32.17;51.74;100658.19;5077521;28;20493;-72
2022/08/16 09:20:28;;;;;;;534.20;505.42;;;;;;;33.88;48.91;100661.81;5077022;28;20028;-72
2022/08/16 09:22:54;;;;;;;482.08;456.42;;;;;;;34.39;45.60;100661.34;5079006;28;20024;-72
2022/08/16 09:25:19;;;;;;;463.90;439.10;;;;;;;33.94;46.91;100661.38;5075284;28;20024;-71
2022/08/16 09:27:44;;;;;;;424.75;401.40;;;;;;;34.36;46.16;100664.72;5080526;28;20028;-71
2022/08/16 09:30:10;;;;;;;419.65;397.35;;;;;;;33.69;47.07;100667.47;5078543;28;20055;-71
2022/08/16 09:32:36;;;;;;;394.83;374.38;;;;;;;33.40;48.02;100665.91;5081553;28;20029;-73
2022/08/16 09:35:03;;;;;;;454.15;429.48;;;;;;;34.09;47.67;100662.13;5082728;28;20343;-72
2022/08/16 09:37:30;;;;;;;394.08;373.55;;;;;;;34.61;46.22;100654.19;5081990;28;20446;-72
2022/08/16 09:39:57;;;;;;;408.50;386.83;;;;;;;34.34;45.89;100664.25;5081780;28;20028;-72
2022/08/16 09:42:22;;;;;;;405.55;383.83;;;;;;;33.40;47.07;100663.19;5074849;28;20017;-71
2022/08/16 09:44:47;;;;;;;399.90;378.90;;;;;;;33.94;45.29;100661.38;5079349;28;20081;-72
2022/08/16 09:47:13;;;;;;;395.50;374.88;;;;;;;31.26;49.21;100674.00;5077630;28;20463;-71
2022/08/16 09:49:39;;;;;;;435.52;412.92;;;;;;;32.79;47.87;100654.34;5081356;28;20109;-71
2022/08/16 09:52:04;;;;;;;420.58;398.27;;;;;;;34.05;46.72;100659.19;5082574;28;20074;-71
2022/08/16 09:54:29;;;;;;;376.10;357.08;;;;;;;34.82;43.56;100663.50;5078791;28;20036;-71
2022/08/16 09:56:55;;;;;;;382.60;362.45;;;;;;;34.75;44.74;100651.34;5074425;28;20056;-71
2022/08/16 09:59:23;;;;;;;424.05;401.58;;;;;;;34.67;46.75;100661.19;5057032;28;20126;-71
2022/08/16 10:01:50;;;;;;;383.70;363.58;;;;;;;35.01;45.28;100663.19;5072466;28;20043;-71
2022/08/16 10:04:16;;;;;;;348.35;329.55;;;;;;;35.64;45.14;100673.97;5078986;28;20115;-71
2022/08/16 10:06:44;;;;;;;352.30;333.83;;;;;;;36.05;42.87;100659.69;5077804;28;20113;-72
2022/08/16 10:09:12;;;;;;;324.13;307.55;;;;;;;36.03;42.94;100672.13;5080716;28;20245;-71
2022/08/16 10:14:23;;;;;;;341.45;324.17;;;;;;;36.63;43.06;100670.38;5083856;28;20050;-71
2022/08/16 10:16:49;;;;;;;269.83;257.30;;;;;;;35.97;42.44;100679.72;5075200;28;20472;-71
2022/08/16 10:19:15;;;;;;;303.17;287.92;;;;;;;35.88;41.95;100675.41;5082319;28;20500;-71
2022/08/16 10:21:41;;;;;;;283.40;269.52;;;;;;;34.66;43.81;100675.19;5075574;28;20012;-71
2022/08/16 10:24:07;;;;;;;348.83;331.30;;;;;;;35.28;45.41;100682.47;5075531;28;20047;-71
2022/08/16 10:26:34;;;;;;;327.88;310.95;;;;;;;37.32;42.70;100679.38;5079964;28;20028;-70
2022/08/16 10:29:00;;;;;;;304.05;289.73;;;;;;;36.84;41.87;100673.97;5073937;28;20168;-71
2022/08/16 10:31:26;;;;;;;276.48;262.80;;;;;;;36.88;42.15;100671.38;5075888;28;20020;-72
2022/08/16 10:33:52;;;;;;;276.05;262.58;;;;;;;36.59;42.50;100680.41;5081777;28;20447;-71
2022/08/16 10:36:18;;;;;;;271.73;258.50;;;;;;;37.32;40.52;100682.13;5066936;28;20387;-71
2022/08/16 10:38:43;;;;;;;269.83;257.35;;;;;;;38.54;39.47;100683.75;5085438;28;20055;-71
2022/08/16 10:41:10;;;;;;;276.48;263.30;;;;;;;37.37;38.96;100684.66;5070303;28;20039;-71
2022/08/16 10:43:37;;;;;;;261.75;249.23;;;;;;;36.23;42.92;100681.66;5078838;28;20024;-71
2022/08/16 10:46:05;;;;;;;261.05;249.05;;;;;;;36.96;39.96;100680.72;5075781;28;20400;-71
2022/08/16 10:48:32;;;;;;;280.55;266.58;;;;;;;37.33;42.10;100686.50;5071856;28;20052;-71
2022/08/16 10:50:59;;;;;;;305.98;290.88;;;;;;;38.38;39.96;100698.19;5072519;28;20036;-71
2022/08/16 10:53:26;;;;;;;282.23;269.05;;;;;;;39.12;37.38;100694.66;5074713;28;20498;-71
2022/08/16 10:55:52;;;;;;;301.75;286.83;;;;;;;39.22;39.09;100700.53;5081189;28;20024;-71
2022/08/16 10:58:17;;;;;;;279.20;266.15;;;;;;;37.88;39.11;100690.91;5074356;28;20614;-71
2022/08/16 11:00:44;;;;;;;250.15;238.57;;;;;;;34.86;43.88;100699.28;5076620;28;20081;-71
2022/08/16 11:03:09;;;;;;;286.30;272.35;;;;;;;35.96;43.56;100702.84;5076947;28;20396;-71
2022/08/16 11:05:38;;;;;;;316.17;300.30;;;;;;;37.32;40.28;100699.44;5085634;28;20028;-71
2022/08/16 11:08:06;;;;;;;277.77;264.37;;;;;;;38.28;41.39;100706.88;5080048;28;20403;-71